Brigham City, Utah
Current Conditions -  °F | °C
As of 11:15 PM on Tuesday 21 Oct 2014 (Local Time) from KBMC Reporting Station
Clear Clear  
Wind Chill: 44°   Ceiling: Unl
Heat Index: 46°   Visibility: 10mi
Dew Point: 31°   Wind: 5mph
Humidity: 54%   Direction: 290°WNW
Pressure: 30.1"   Gusts: NA
Location:  41.51°N, 112.01°W
Report Text: KBMC 220515Z AUTO 29004KT 10SM CLR 08/M01 A3010 RMK AO1 T00791008
Loading
Personal Weather Stations






























Interactive Weather Map
Tropical Storm Tracking
New forecast layout! Learn more

10-Day Weather Forecast

Advertisements
Track Severe Weather on mobile